ΕΜΥ, Εθνική Μετεωρολογική Υπηρεσία - Δελτία Καιρού, Προγνώσεις

ΑΕΡΟΝΑΥΤΙΛΙΑ

GREEK AIRPORTS CODES

TAF LGAV 191700Z 1918/2018 02015KT 9999 FEW020 BECMG 1919/1921 34015KT BECMG 2006/2008 02015G25KT=

EUROPEAN AIRPORTS CODES

LFPO 192100Z 34003KT CAVOK 24/12 Q1012 NOSIG=